Time;durP1;ratioP1;P1;durP2;ratioP2;P2;SDS_P1;SDS_P2;PMS_P1;PMS_P2;Temp;Humidity;BMP_temperature;BMP_pressure;BME280_temperature;BME280_humidity;BME280_pressure;Samples;Min_cycle;Max_cycle;Signal;HPM_P1;HPM_P2
2021/03/14 00:00:49;;;;;;;22.25;2.28;;;6.30;88.60;;;;;;4995016;28;20097;-84
2021/03/14 00:03:18;;;;;;;16.35;2.47;;;6.30;88.50;;;;;;4993680;28;20451;-83
2021/03/14 00:05:46;;;;;;;14.88;2.00;;;6.30;88.40;;;;;;4994563;28;20523;-84
2021/03/14 00:08:13;;;;;;;19.42;2.35;;;6.20;88.50;;;;;;4993477;28;20402;-84
2021/03/14 00:10:41;;;;;;;19.02;2.60;;;6.30;88.40;;;;;;4994355;28;20219;-83
2021/03/14 00:13:07;;;;;;;10.98;1.95;;;6.20;88.30;;;;;;4994361;28;20046;-84
2021/03/14 00:15:33;;;;;;;13.10;2.10;;;6.20;88.20;;;;;;4993445;28;20055;-84
2021/03/14 00:17:59;;;;;;;13.40;2.40;;;6.20;88.10;;;;;;5009638;28;20046;-83
2021/03/14 00:20:24;;;;;;;10.80;1.83;;;6.20;88.10;;;;;;5013376;28;20042;-84
2021/03/14 00:22:50;;;;;;;14.82;2.10;;;6.20;88.10;;;;;;5013245;28;20050;-83
2021/03/14 00:25:16;;;;;;;16.05;1.90;;;6.20;88.10;;;;;;5012593;28;20081;-83
2021/03/14 00:27:44;;;;;;;16.30;2.45;;;6.10;88.00;;;;;;5013701;28;20139;-84
2021/03/14 00:30:13;;;;;;;13.45;2.33;;;6.20;88.00;;;;;;5012566;28;20509;-84
2021/03/14 00:32:40;;;;;;;9.23;1.77;;;6.10;88.00;;;;;;5013872;28;20418;-84
2021/03/14 00:35:09;;;;;;;14.35;1.95;;;6.10;88.00;;;;;;5013652;28;20053;-84
2021/03/14 00:37:34;;;;;;;14.02;2.10;;;6.10;88.00;;;;;;5012197;28;20050;-84
2021/03/14 00:40:00;;;;;;;11.55;1.42;;;6.10;87.90;;;;;;5013585;28;20050;-83
2021/03/14 00:42:26;;;;;;;14.52;2.05;;;6.00;87.80;;;;;;5006347;28;20046;-84
2021/03/14 00:44:51;;;;;;;16.23;2.08;;;6.10;88.00;;;;;;4993357;28;20054;-83
2021/03/14 00:47:17;;;;;;;15.82;2.08;;;6.00;87.90;;;;;;5003152;28;20054;-83
2021/03/14 00:49:43;;;;;;;15.55;2.10;;;6.00;87.80;;;;;;5013538;28;20124;-83
2021/03/14 00:52:08;;;;;;;12.02;1.85;;;6.00;87.90;;;;;;5012429;28;20478;-84
2021/03/14 00:54:34;;;;;;;14.85;2.35;;;6.00;88.00;;;;;;5012979;28;20046;-84
2021/03/14 00:57:01;;;;;;;22.38;2.95;;;6.00;88.00;;;;;;5001427;28;20467;-84
2021/03/14 00:59:26;;;;;;;16.58;2.15;;;6.00;88.10;;;;;;5003827;28;20084;-84
2021/03/14 01:01:52;;;;;;;12.52;2.00;;;5.90;88.20;;;;;;5013323;28;20053;-84
2021/03/14 01:04:18;;;;;;;13.27;2.15;;;5.90;88.40;;;;;;5012202;28;20074;-84
2021/03/14 01:06:44;;;;;;;17.45;2.13;;;5.90;88.50;;;;;;5013028;28;20064;-84
2021/03/14 01:09:09;;;;;;;17.70;2.28;;;5.90;88.80;;;;;;5006179;28;20562;-83
2021/03/14 01:11:35;;;;;;;17.65;2.22;;;5.90;88.80;;;;;;4992610;28;20125;-84
2021/03/14 01:14:01;;;;;;;20.10;2.67;;;5.90;88.90;;;;;;4993623;28;20053;-84
2021/03/14 01:16:27;;;;;;;15.10;2.25;;;5.80;88.80;;;;;;4993139;28;20486;-84
2021/03/14 01:18:53;;;;;;;19.58;2.75;;;5.80;89.00;;;;;;5010979;28;20046;-83
2021/03/14 01:21:18;;;;;;;19.20;2.70;;;5.80;89.10;;;;;;5009554;28;20413;-84
2021/03/14 01:23:45;;;;;;;20.27;2.50;;;5.80;89.20;;;;;;5011915;28;20044;-84
2021/03/14 01:26:10;;;;;;;18.85;2.85;;;5.80;89.30;;;;;;5011476;28;20061;-84
2021/03/14 01:28:36;;;;;;;18.75;2.63;;;5.80;89.30;;;;;;5016277;28;20045;-83
2021/03/14 01:31:02;;;;;;;17.40;2.72;;;5.80;89.50;;;;;;5005098;28;20095;-84
2021/03/14 01:33:28;;;;;;;13.55;2.38;;;5.80;89.60;;;;;;5009514;28;20993;-84
2021/03/14 01:35:54;;;;;;;19.38;2.72;;;5.80;89.70;;;;;;5010423;28;20490;-84
2021/03/14 01:38:20;;;;;;;21.65;2.63;;;5.80;89.70;;;;;;5003817;28;20050;-85
2021/03/14 01:40:59;;;;;;;20.40;2.85;;;5.80;89.90;;;;;;4992470;28;20057;-84
2021/03/14 01:43:35;;;;;;;16.65;2.90;;;5.80;89.80;;;;;;4993082;28;20089;-84
2021/03/14 01:46:04;;;;;;;14.13;2.45;;;5.80;89.90;;;;;;4993215;28;20502;-84
2021/03/14 01:48:36;;;;;;;18.25;2.75;;;5.80;90.00;;;;;;4992268;28;20487;-83
2021/03/14 01:51:03;;;;;;;19.73;2.47;;;5.80;90.00;;;;;;4993475;28;20120;-83
2021/03/14 01:53:31;;;;;;;23.88;3.53;;;5.70;90.00;;;;;;4992020;28;20062;-83
2021/03/14 01:55:57;;;;;;;15.38;2.65;;;5.80;90.10;;;;;;4997057;28;20409;-84
2021/03/14 01:58:25;;;;;;;18.50;2.55;;;5.70;90.10;;;;;;5012701;28;20069;-83
2021/03/14 02:00:52;;;;;;;19.70;2.53;;;5.70;90.10;;;;;;5011920;28;20112;-83
2021/03/14 02:03:20;;;;;;;22.33;3.13;;;5.80;90.10;;;;;;5012281;28;20521;-84
2021/03/14 02:05:54;;;;;;;22.98;2.60;;;5.80;90.10;;;;;;5012687;28;20050;-84
2021/03/14 02:08:27;;;;;;;18.10;2.78;;;5.80;90.10;;;;;;5011784;28;20050;-83
2021/03/14 02:10:54;;;;;;;24.45;3.25;;;5.80;90.10;;;;;;5012447;28;20552;-84
2021/03/14 02:13:44;;;;;;;27.33;3.50;;;5.80;90.10;;;;;;5012319;28;20046;-84
2021/03/14 02:16:17;;;;;;;23.23;3.13;;;5.80;90.10;;;;;;5011590;28;20050;-84
2021/03/14 02:18:47;;;;;;;28.27;3.38;;;5.80;90.10;;;;;;5012809;28;20046;-84
2021/03/14 02:21:13;;;;;;;23.10;2.90;;;5.80;90.10;;;;;;5012383;28;20053;-84
2021/03/14 02:24:00;;;;;;;21.65;3.17;;;5.80;90.10;;;;;;5011979;28;20104;-84
2021/03/14 02:26:44;;;;;;;19.73;3.03;;;5.80;90.10;;;;;;4995064;28;20077;-84
2021/03/14 02:29:14;;;;;;;20.60;3.33;;;5.80;90.10;;;;;;5011668;28;20064;-84
2021/03/14 02:31:42;;;;;;;20.58;2.97;;;5.80;90.10;;;;;;5012317;28;20053;-84
2021/03/14 02:34:12;;;;;;;21.25;3.15;;;5.80;90.10;;;;;;5012044;28;20065;-84
2021/03/14 02:36:41;;;;;;;21.20;3.40;;;5.80;90.10;;;;;;5011635;28;20123;-83
2021/03/14 02:39:09;;;;;;;18.23;2.90;;;5.80;90.10;;;;;;5012695;28;20100;-82
2021/03/14 02:41:36;;;;;;;19.30;3.05;;;5.80;90.10;;;;;;5012182;28;20054;-82
2021/03/14 02:44:10;;;;;;;17.35;2.97;;;5.80;90.10;;;;;;5011759;28;20133;-82
2021/03/14 02:46:36;;;;;;;29.13;3.85;;;5.80;90.10;;;;;;5012653;28;20054;-82
2021/03/14 02:49:02;;;;;;;32.25;3.80;;;5.80;90.10;;;;;;5013995;28;20072;-82
2021/03/14 02:59:20;;;;;;;19.73;2.90;;;5.80;90.20;;;;;;5014364;28;20105;-83
2021/03/14 03:01:50;;;;;;;31.42;3.55;;;5.70;90.20;;;;;;5015403;28;20054;-82
2021/03/14 03:04:18;;;;;;;22.58;3.55;;;5.70;90.20;;;;;;5014784;28;20097;-82
2021/03/14 03:06:45;;;;;;;21.83;2.90;;;5.70;90.20;;;;;;5015721;28;20105;-83
2021/03/14 03:09:13;;;;;;;19.77;3.10;;;5.80;90.30;;;;;;5015639;28;20116;-83
2021/03/14 03:11:40;;;;;;;16.83;3.10;;;5.80;90.30;;;;;;5015026;28;20490;-82
2021/03/14 03:14:10;;;;;;;27.08;4.13;;;5.80;90.30;;;;;;5015429;28;20512;-82
2021/03/14 03:16:37;;;;;;;25.88;3.53;;;5.80;90.30;;;;;;5015542;28;20054;-82
2021/03/14 03:19:03;;;;;;;21.30;3.50;;;5.80;90.30;;;;;;5014793;28;20068;-82
2021/03/14 03:21:30;;;;;;;23.20;3.40;;;5.80;90.30;;;;;;5015112;28;20144;-83
2021/03/14 03:23:56;;;;;;;23.42;3.60;;;5.80;90.30;;;;;;5015350;28;20093;-84
2021/03/14 03:26:22;;;;;;;22.83;2.83;;;5.80;90.30;;;;;;5013857;28;20187;-84
2021/03/14 03:28:49;;;;;;;22.42;3.75;;;5.80;90.30;;;;;;5015189;28;20133;-85
2021/03/14 03:31:15;;;;;;;26.92;3.70;;;5.80;90.30;;;;;;5015180;28;20112;-84
2021/03/14 03:33:41;;;;;;;25.45;3.55;;;5.70;90.30;;;;;;5014171;28;20053;-83
2021/03/14 03:36:07;;;;;;;23.23;3.10;;;5.70;90.30;;;;;;5014752;28;20187;-82
2021/03/14 03:38:34;;;;;;;22.15;3.45;;;5.70;90.30;;;;;;5014415;28;20049;-82
2021/03/14 03:41:00;;;;;;;21.38;3.33;;;5.70;90.30;;;;;;5014201;28;20053;-82
2021/03/14 03:43:31;;;;;;;23.48;3.35;;;5.70;90.30;;;;;;5014198;28;20042;-82
2021/03/14 03:46:00;;;;;;;20.25;2.95;;;5.60;90.30;;;;;;5014481;28;20053;-82
2021/03/14 03:48:51;;;;;;;22.30;3.28;;;5.60;90.40;;;;;;5014553;28;20046;-83
2021/03/14 03:51:20;;;;;;;22.17;4.10;;;5.60;90.40;;;;;;5012439;28;20064;-81
2021/03/14 03:53:46;;;;;;;22.13;3.13;;;5.60;90.40;;;;;;4996142;28;20421;-82
2021/03/14 03:56:13;;;;;;;20.85;3.63;;;5.60;90.40;;;;;;5012789;28;20057;-82
2021/03/14 03:58:45;;;;;;;22.33;3.90;;;5.50;90.40;;;;;;4996799;28;20057;-81
2021/03/14 04:01:13;;;;;;;25.27;3.70;;;5.50;90.40;;;;;;4993904;28;20081;-83
2021/03/14 04:03:47;;;;;;;25.13;3.40;;;5.50;90.50;;;;;;4994563;28;20054;-82
2021/03/14 04:06:42;;;;;;;17.00;3.47;;;5.50;90.50;;;;;;4994425;28;20479;-82
2021/03/14 04:09:10;;;;;;;21.15;3.33;;;5.50;90.40;;;;;;4993543;28;20490;-82
2021/03/14 04:11:42;;;;;;;18.05;2.90;;;5.50;90.50;;;;;;4994817;28;20054;-82
2021/03/14 04:14:13;;;;;;;20.75;3.00;;;5.50;90.50;;;;;;4994095;28;20061;-81
2021/03/14 04:16:40;;;;;;;18.80;3.38;;;5.50;90.50;;;;;;4994477;28;20534;-84
2021/03/14 04:19:23;;;;;;;19.88;2.90;;;5.50;90.50;;;;;;4994825;28;20129;-84
2021/03/14 04:21:50;;;;;;;18.23;2.83;;;5.50;90.40;;;;;;4994108;28;20117;-82
2021/03/14 04:24:17;;;;;;;17.42;2.60;;;5.50;90.40;;;;;;4994114;28;20800;-84
2021/03/14 04:26:53;;;;;;;17.75;2.53;;;5.50;90.40;;;;;;4994455;28;20137;-84
2021/03/14 04:29:22;;;;;;;17.58;2.70;;;5.50;90.40;;;;;;4993471;28;20059;-81
2021/03/14 04:31:49;;;;;;;18.75;2.63;;;5.50;90.30;;;;;;4994723;28;20105;-82
2021/03/14 04:34:28;;;;;;;16.83;2.60;;;5.50;90.40;;;;;;4994032;28;20054;-82
2021/03/14 04:36:54;;;;;;;18.33;2.65;;;5.50;90.40;;;;;;4993540;28;20046;-82
2021/03/14 04:39:21;;;;;;;15.40;2.65;;;5.50;90.30;;;;;;4993947;28;20060;-82
2021/03/14 04:41:51;;;;;;;22.35;2.88;;;5.50;90.40;;;;;;4994147;28;20076;-84
2021/03/14 04:44:18;;;;;;;16.10;2.72;;;5.50;90.30;;;;;;4993141;28;20498;-84
2021/03/14 04:46:50;;;;;;;14.95;2.97;;;5.50;90.30;;;;;;4994218;28;20062;-82
2021/03/14 04:49:16;;;;;;;15.73;2.22;;;5.50;90.20;;;;;;4993569;28;20046;-83
2021/03/14 04:51:46;;;;;;;15.48;2.30;;;5.50;90.30;;;;;;4993980;28;20068;-81
2021/03/14 04:54:13;;;;;;;20.90;2.70;;;5.50;90.40;;;;;;4993441;28;20065;-83
2021/03/14 04:56:58;;;;;;;16.77;2.75;;;5.50;90.40;;;;;;4993206;28;20081;-82
2021/03/14 04:59:25;;;;;;;18.98;2.95;;;5.50;90.40;;;;;;4976454;28;20126;-83
2021/03/14 05:01:52;;;;;;;16.55;2.58;;;5.50;90.40;;;;;;4993961;28;20103;-84
2021/03/14 05:04:23;;;;;;;13.38;2.53;;;5.50;90.40;;;;;;4993101;28;20046;-82
2021/03/14 05:06:51;;;;;;;18.38;2.97;;;5.50;90.40;;;;;;4993671;28;20108;-82
2021/03/14 05:09:17;;;;;;;15.52;2.78;;;5.50;90.40;;;;;;4993655;28;20409;-82
2021/03/14 05:11:56;;;;;;;18.23;3.05;;;5.50;90.40;;;;;;4992793;28;20050;-82
2021/03/14 05:14:23;;;;;;;15.52;2.63;;;5.50;90.50;;;;;;4993466;28;20058;-82
2021/03/14 05:16:52;;;;;;;20.65;3.28;;;5.40;90.50;;;;;;4993525;28;20545;-82
2021/03/14 05:19:21;;;;;;;13.98;2.50;;;5.50;90.50;;;;;;4992493;28;20065;-83
2021/03/14 05:21:47;;;;;;;20.00;2.50;;;5.50;90.60;;;;;;4993496;28;20502;-83
2021/03/14 05:24:13;;;;;;;15.88;2.65;;;5.50;90.60;;;;;;4993652;28;20089;-84
2021/03/14 05:26:49;;;;;;;15.68;2.47;;;5.40;90.60;;;;;;4992963;28;20054;-83
2021/03/14 05:29:24;;;;;;;23.33;3.58;;;5.40;90.60;;;;;;4993228;28;20050;-83
2021/03/14 05:31:52;;;;;;;16.90;2.58;;;5.40;90.70;;;;;;4993018;28;20115;-83
2021/03/14 05:37:59;;;;;;;17.52;2.30;;;5.40;90.70;;;;;;4914232;29;20071;-83
2021/03/14 05:40:27;;;;;;;21.67;2.80;;;5.40;90.80;;;;;;4913454;29;20404;-83
2021/03/14 05:46:04;;;;;;;22.30;3.33;;;5.40;90.80;;;;;;4990985;28;20050;-83
2021/03/14 05:48:30;;;;;;;13.90;2.70;;;5.40;90.80;;;;;;4993124;28;20189;-83
2021/03/14 05:50:55;;;;;;;14.75;2.50;;;5.40;90.80;;;;;;4993329;28;20042;-83
2021/03/14 05:53:22;;;;;;;17.40;2.67;;;5.40;90.80;;;;;;4992024;28;20134;-83
2021/03/14 05:55:50;;;;;;;18.15;2.55;;;5.40;90.90;;;;;;5000029;28;20104;-83
2021/03/14 05:58:16;;;;;;;14.23;2.72;;;5.40;90.80;;;;;;5007655;28;20124;-82
2021/03/14 06:00:46;;;;;;;15.18;2.95;;;5.40;90.90;;;;;;5001027;28;20126;-83
2021/03/14 06:03:12;;;;;;;15.20;3.00;;;5.40;90.80;;;;;;5005969;28;20513;-83
2021/03/14 06:05:51;;;;;;;12.98;2.38;;;5.40;90.80;;;;;;5010205;28;20046;-83
2021/03/14 06:08:20;;;;;;;18.20;2.50;;;5.40;90.80;;;;;;5010586;28;20129;-83
2021/03/14 06:10:57;;;;;;;12.45;2.67;;;5.40;90.80;;;;;;5012149;28;20475;-84
2021/03/14 06:13:23;;;;;;;14.68;2.60;;;5.40;90.80;;;;;;5012399;28;20046;-83
2021/03/14 06:15:51;;;;;;;18.48;3.05;;;5.40;90.80;;;;;;5011757;28;20046;-82
2021/03/14 06:18:20;;;;;;;17.42;2.45;;;5.50;90.90;;;;;;5018512;28;20398;-82
2021/03/14 06:20:46;;;;;;;16.58;2.70;;;5.50;90.90;;;;;;5019108;28;20494;-81
2021/03/14 06:23:14;;;;;;;10.98;2.05;;;5.50;90.90;;;;;;5012719;28;20042;-84
2021/03/14 06:25:58;;;;;;;17.63;2.65;;;5.50;90.90;;;;;;5016371;28;20137;-84
2021/03/14 06:28:54;;;;;;;15.25;2.95;;;5.40;90.80;;;;;;4996456;28;20054;-84
2021/03/14 06:31:21;;;;;;;16.98;2.72;;;5.40;90.90;;;;;;4981636;28;20050;-82
2021/03/14 06:33:56;;;;;;;18.85;2.78;;;5.40;90.90;;;;;;4997953;28;20056;-82
2021/03/14 06:36:34;;;;;;;14.77;2.35;;;5.50;90.90;;;;;;5014994;28;20062;-81
2021/03/14 06:39:00;;;;;;;11.35;2.67;;;5.50;90.90;;;;;;5015985;28;20462;-82
2021/03/14 06:45:21;;;;;;;17.75;2.38;;;5.40;90.90;;;;;;4991306;28;20083;-82
2021/03/14 06:48:05;;;;;;;13.25;2.42;;;5.50;90.90;;;;;;4999483;28;20053;-82
2021/03/14 06:50:40;;;;;;;15.55;2.30;;;5.40;90.90;;;;;;5014335;28;20498;-81
2021/03/14 06:53:41;;;;;;;13.00;2.15;;;5.40;90.90;;;;;;5015327;28;20069;-82
2021/03/14 06:56:07;;;;;;;13.02;2.10;;;5.40;90.80;;;;;;4997466;28;20077;-82
2021/03/14 06:58:36;;;;;;;13.13;2.25;;;5.50;90.90;;;;;;5015407;28;20042;-82
2021/03/14 07:01:34;;;;;;;11.65;2.13;;;5.40;90.90;;;;;;5105247;22;20053;-82
2021/03/14 07:04:00;;;;;;;14.48;2.53;;;5.50;90.80;;;;;;5013275;28;20068;-82
2021/03/14 07:06:29;;;;;;;17.23;2.38;;;5.50;90.90;;;;;;5014826;28;20060;-81
2021/03/14 07:09:13;;;;;;;14.13;2.17;;;5.50;90.90;;;;;;5015595;28;20058;-82
2021/03/14 07:11:45;;;;;;;10.95;2.00;;;5.50;90.80;;;;;;5014579;28;20085;-83
2021/03/14 07:14:43;;;;;;;18.13;2.50;;;5.50;90.90;;;;;;5002416;28;20050;-86
2021/03/14 07:17:30;;;;;;;13.57;2.08;;;5.50;90.90;;;;;;4982499;28;20068;-85
2021/03/14 07:20:02;;;;;;;14.15;2.33;;;5.50;91.00;;;;;;4995481;28;20077;-85
2021/03/14 07:22:28;;;;;;;13.90;2.50;;;5.50;90.90;;;;;;4995850;28;20061;-85
2021/03/14 07:25:46;;;;;;;18.77;2.50;;;5.50;90.90;;;;;;4995035;28;20129;-85
2021/03/14 07:33:02;;;;;;;15.70;2.30;;;5.60;91.00;;;;;;4848935;29;20506;-86
2021/03/14 07:36:17;;;;;;;13.82;2.10;;;5.60;91.10;;;;;;4822415;29;20078;-85
2021/03/14 07:39:01;;;;;;;15.32;2.40;;;5.60;91.10;;;;;;4750975;30;20080;-86
2021/03/14 07:42:49;;;;;;;15.30;2.40;;;5.70;91.10;;;;;;4751736;30;20117;-85
2021/03/14 07:45:24;;;;;;;15.23;2.45;;;5.80;91.20;;;;;;4696075;30;20052;-85
2021/03/14 07:48:13;;;;;;;16.00;2.50;;;5.90;91.20;;;;;;4792056;29;20058;-86
2021/03/14 07:51:17;;;;;;;16.50;2.80;;;5.90;91.20;;;;;;4911573;29;20059;-85
2021/03/14 07:54:12;;;;;;;16.65;2.53;;;6.00;91.20;;;;;;4908674;29;20056;-86
2021/03/14 07:56:55;;;;;;;17.08;2.55;;;6.10;91.10;;;;;;4916219;29;20052;-87
2021/03/14 07:59:29;;;;;;;17.52;2.78;;;6.20;91.10;;;;;;4915457;29;20087;-86
2021/03/14 08:02:46;;;;;;;18.33;2.70;;;6.30;91.10;;;;;;4915884;29;20684;-86
2021/03/14 08:05:57;;;;;;;20.75;2.90;;;6.30;91.00;;;;;;4911815;29;20055;-86
2021/03/14 08:28:02;;;;;;;17.05;2.78;;;6.60;90.80;;;;;;4933823;29;20054;-87
2021/03/14 08:31:01;;;;;;;17.17;2.88;;;6.60;90.80;;;;;;4934403;29;20048;-87
2021/03/14 08:33:52;;;;;;;17.67;3.10;;;6.70;90.80;;;;;;4896379;29;20401;-85
2021/03/14 08:36:55;;;;;;;16.63;2.90;;;6.80;90.70;;;;;;4803417;29;20108;-86
2021/03/14 08:43:23;;;;;;;17.23;3.13;;;6.80;90.70;;;;;;4798810;29;20138;-87
2021/03/14 08:45:57;;;;;;;14.80;2.42;;;6.90;90.80;;;;;;4840210;29;20575;-86
2021/03/14 08:48:47;;;;;;;19.60;2.90;;;7.00;90.60;;;;;;4840128;29;20495;-87
2021/03/14 08:51:25;;;;;;;18.98;3.03;;;7.00;90.50;;;;;;4840543;29;20512;-86
2021/03/14 08:54:21;;;;;;;;;;;;;;;;;;;;;
2021/03/14 08:57:12;;;;;;;19.15;2.60;;;7.10;90.50;;;;;;4839671;29;20506;-86
2021/03/14 09:00:44;;;;;;;12.40;2.38;;;7.30;90.50;;;;;;4906830;28;20058;-85
2021/03/14 09:04:43;;;;;;;15.90;2.35;;;7.30;90.20;;;;;;4970176;28;20062;-86
2021/03/14 09:07:21;;;;;;;13.57;2.50;;;7.30;90.00;;;;;;4900862;29;20060;-87
2021/03/14 09:10:20;;;;;;;22.80;2.83;;;7.40;89.80;;;;;;4881043;29;20590;-86
2021/03/14 09:13:02;;;;;;;15.05;2.40;;;7.50;89.70;;;;;;4937708;28;20093;-86
2021/03/14 09:15:48;;;;;;;21.25;3.67;;;7.50;89.40;;;;;;4965637;28;20421;-85
2021/03/14 09:18:21;;;;;;;15.48;2.60;;;7.50;89.00;;;;;;4992997;28;20058;-86
2021/03/14 09:21:02;;;;;;;14.65;2.50;;;7.60;89.10;;;;;;5013198;28;20109;-92
2021/03/14 09:23:41;;;;;;;17.20;2.90;;;7.60;89.00;;;;;;4995932;28;20104;-88
2021/03/14 09:26:29;;;;;;;16.08;2.40;;;7.70;89.20;;;;;;5010538;28;20050;-87
2021/03/14 09:29:02;;;;;;;14.15;2.45;;;7.80;88.50;;;;;;5000644;28;20053;-86
2021/03/14 09:31:41;;;;;;;10.80;1.90;;;7.80;88.10;;;;;;5011962;28;20081;-85
2021/03/14 09:34:19;;;;;;;11.45;1.98;;;7.80;87.30;;;;;;5013358;28;20045;-87
2021/03/14 09:36:50;;;;;;;12.65;2.05;;;7.90;87.10;;;;;;5012041;28;20050;-88
2021/03/14 09:39:22;;;;;;;16.00;2.80;;;7.90;87.50;;;;;;5008882;28;20050;-86
2021/03/14 09:42:08;;;;;;;16.48;2.20;;;7.90;87.70;;;;;;5013006;28;20417;-87
2021/03/14 09:45:11;;;;;;;12.65;2.05;;;8.00;87.70;;;;;;5010874;28;20054;-87
2021/03/14 09:48:05;;;;;;;12.63;1.70;;;8.00;87.50;;;;;;5011564;28;20509;-89
2021/03/14 09:50:45;;;;;;;8.43;1.63;;;8.10;87.10;;;;;;5013062;28;20541;-88
2021/03/14 09:53:12;;;;;;;10.55;2.00;;;8.10;87.00;;;;;;5012563;28;20462;-89
2021/03/14 10:01:19;;;;;;;10.02;1.80;;;8.40;86.80;;;;;;4994513;28;20394;-86
2021/03/14 10:04:28;;;;;;;9.85;1.85;;;8.50;86.60;;;;;;4994533;28;20108;-85
2021/03/14 10:06:57;;;;;;;11.20;1.77;;;8.60;85.70;;;;;;4990990;28;20421;-85
2021/03/14 10:09:31;;;;;;;13.05;2.38;;;8.60;85.10;;;;;;4982451;28;20417;-84
2021/03/14 10:12:26;;;;;;;9.68;1.80;;;8.60;85.30;;;;;;4996620;28;20046;-85
2021/03/14 10:15:31;;;;;;;13.93;1.90;;;8.60;85.30;;;;;;4950109;28;20057;-86
2021/03/14 10:18:25;;;;;;;15.55;2.00;;;8.70;85.30;;;;;;4997140;28;20085;-88
2021/03/14 10:24:28;;;;;;;10.35;1.83;;;8.80;85.10;;;;;;4981922;28;20215;-92
2021/03/14 10:27:24;;;;;;;12.82;1.60;;;9.00;85.00;;;;;;4994974;28;20418;-88
2021/03/14 10:30:26;;;;;;;7.03;1.20;;;9.00;84.30;;;;;;4996366;28;20042;-89
2021/03/14 10:33:36;;;;;;;;;;;;;;;;;;;;;
2021/03/14 10:36:53;;;;;;;9.40;1.52;;;8.90;84.70;;;;;;4911734;28;20153;-86
2021/03/14 10:39:30;;;;;;;11.32;1.60;;;8.80;85.70;;;;;;4995421;28;20133;-87
2021/03/14 10:50:41;;;;;;;8.73;1.60;;;8.80;87.30;;;;;;4838447;29;20048;-88
2021/03/14 10:53:23;;;;;;;9.90;1.80;;;8.80;86.90;;;;;;4965851;28;21078;-86
2021/03/14 10:56:03;;;;;;;13.77;2.00;;;8.80;86.90;;;;;;4987432;28;20054;-86
2021/03/14 10:58:44;;;;;;;14.77;1.88;;;8.80;86.80;;;;;;4987580;28;20050;-86
2021/03/14 11:09:20;;;;;;;10.52;1.35;;;8.90;87.10;;;;;;4893094;29;20049;-87
2021/03/14 11:11:52;;;;;;;7.88;1.30;;;8.90;86.70;;;;;;4898259;29;20512;-86
2021/03/14 11:14:36;;;;;;;9.95;1.50;;;9.00;86.30;;;;;;4897953;29;20055;-85
2021/03/14 11:17:15;;;;;;;6.95;1.45;;;9.00;85.70;;;;;;4897517;29;20063;-85
2021/03/14 11:19:53;;;;;;;9.70;1.38;;;9.10;85.40;;;;;;4925036;29;20495;-86
2021/03/14 11:22:20;;;;;;;9.93;1.70;;;9.20;84.40;;;;;;4957703;28;20403;-81
2021/03/14 11:24:55;;;;;;;11.23;1.42;;;9.20;84.40;;;;;;4956626;28;20185;-87
2021/03/14 11:27:26;;;;;;;8.27;1.67;;;9.30;84.30;;;;;;4973522;28;20061;-88
2021/03/14 11:29:58;;;;;;;10.30;1.60;;;9.30;84.50;;;;;;4976484;28;20113;-87
2021/03/14 11:32:29;;;;;;;9.45;1.80;;;9.30;84.30;;;;;;4974239;28;20055;-90
2021/03/14 11:34:54;;;;;;;10.20;1.45;;;9.40;84.60;;;;;;4976370;28;20100;-90
2021/03/14 11:37:41;;;;;;;8.38;1.55;;;9.30;84.10;;;;;;4975862;28;20133;-91
2021/03/14 11:40:10;;;;;;;10.13;1.60;;;9.30;83.90;;;;;;4976501;28;20047;-89
2021/03/14 11:42:43;;;;;;;10.07;1.50;;;9.30;84.70;;;;;;4976412;28;20051;-89
2021/03/14 11:45:15;;;;;;;7.13;1.50;;;9.30;84.30;;;;;;4975803;28;20101;-91
2021/03/14 11:47:41;;;;;;;7.40;1.77;;;9.20;83.60;;;;;;4976689;28;20050;-90
2021/03/14 11:50:13;;;;;;;8.73;1.73;;;9.20;83.40;;;;;;4976305;28;20042;-89
2021/03/14 11:52:39;;;;;;;11.65;1.40;;;9.20;83.10;;;;;;4976008;28;20054;-90
2021/03/14 11:55:06;;;;;;;10.48;1.55;;;9.30;83.10;;;;;;4976258;28;20062;-89
2021/03/14 11:57:51;;;;;;;10.43;1.70;;;9.30;83.80;;;;;;4976371;28;20137;-90
2021/03/14 12:00:18;;;;;;;8.95;1.60;;;9.30;83.20;;;;;;4987834;28;20178;-92
2021/03/14 12:02:43;;;;;;;7.30;1.38;;;9.40;82.90;;;;;;4995998;28;20077;-92
2021/03/14 12:05:10;;;;;;;10.13;1.63;;;9.40;82.70;;;;;;4998799;28;20108;-89
2021/03/14 12:07:36;;;;;;;7.65;1.52;;;9.50;83.00;;;;;;4999483;28;20056;-89
2021/03/14 12:10:03;;;;;;;10.00;1.88;;;9.50;82.40;;;;;;4996005;28;20050;-90
2021/03/14 12:12:31;;;;;;;8.63;1.58;;;9.60;82.20;;;;;;4995169;28;20046;-91
2021/03/14 12:14:57;;;;;;;10.30;1.35;;;9.60;81.10;;;;;;4994788;28;20471;-90
2021/03/14 12:17:32;;;;;;;12.75;1.80;;;9.50;80.50;;;;;;4994972;28;20054;-89
2021/03/14 12:19:58;;;;;;;9.93;1.90;;;9.50;80.50;;;;;;4994683;28;20520;-90
2021/03/14 12:22:28;;;;;;;10.05;1.77;;;9.50;81.10;;;;;;4994975;28;20050;-90
2021/03/14 12:24:53;;;;;;;12.32;1.80;;;9.50;81.50;;;;;;4995357;28;20057;-89
2021/03/14 12:27:19;;;;;;;9.10;1.80;;;9.50;81.60;;;;;;4994345;28;20137;-91
2021/03/14 12:29:54;;;;;;;11.85;1.98;;;9.40;81.30;;;;;;4995505;28;20054;-90
2021/03/14 12:32:20;;;;;;;11.60;1.60;;;9.40;81.40;;;;;;4995089;28;20089;-90
2021/03/14 12:34:45;;;;;;;13.48;2.15;;;9.40;81.10;;;;;;4994655;28;20058;-88
2021/03/14 12:37:11;;;;;;;13.13;2.15;;;9.50;81.40;;;;;;4994945;28;20054;-89
2021/03/14 12:39:43;;;;;;;14.80;2.05;;;9.50;81.00;;;;;;4995010;28;20130;-89
2021/03/14 12:42:10;;;;;;;15.00;2.08;;;9.60;80.50;;;;;;4992657;28;20042;-92
2021/03/14 12:44:44;;;;;;;13.10;1.95;;;9.60;80.70;;;;;;4994956;28;20054;-90
2021/03/14 12:47:16;;;;;;;12.60;1.92;;;9.60;80.70;;;;;;4978675;28;20065;-89
2021/03/14 12:49:42;;;;;;;7.30;1.55;;;9.60;80.20;;;;;;4994265;28;20129;-90
2021/03/14 12:52:07;;;;;;;11.45;1.77;;;9.70;80.20;;;;;;4995002;28;20129;-91
2021/03/14 12:54:45;;;;;;;14.45;1.92;;;9.70;79.80;;;;;;4994689;28;20074;-91
2021/03/14 12:57:10;;;;;;;9.43;1.45;;;9.70;79.50;;;;;;4994490;28;20054;-91
2021/03/14 12:59:36;;;;;;;13.18;1.80;;;9.70;79.70;;;;;;4994278;28;20142;-90
2021/03/14 13:02:02;;;;;;;10.70;1.85;;;9.70;80.10;;;;;;4993779;28;20054;-90
2021/03/14 13:04:28;;;;;;;9.98;1.60;;;9.70;80.70;;;;;;4994529;28;20054;-90
2021/03/14 13:06:54;;;;;;;16.90;2.10;;;9.80;79.90;;;;;;4994676;28;20049;-91
2021/03/14 13:09:24;;;;;;;12.38;1.75;;;9.70;79.70;;;;;;4993632;28;20050;-91
2021/03/14 13:11:50;;;;;;;13.40;1.65;;;9.70;79.60;;;;;;4994340;28;20122;-88
2021/03/14 13:14:16;;;;;;;11.65;1.70;;;9.80;79.40;;;;;;4993648;28;20146;-89
2021/03/14 13:16:42;;;;;;;12.50;1.70;;;9.70;79.30;;;;;;4993658;28;20053;-89
2021/03/14 13:19:17;;;;;;;8.40;1.77;;;9.70;79.60;;;;;;4994440;28;20057;-91
2021/03/14 13:21:43;;;;;;;16.40;1.90;;;9.70;79.50;;;;;;4994504;28;20490;-90
2021/03/14 13:24:18;;;;;;;8.50;1.63;;;9.60;79.40;;;;;;4997316;28;20053;-90
2021/03/14 13:26:56;;;;;;;8.68;1.45;;;9.60;79.30;;;;;;5001129;28;20047;-89
2021/03/14 13:29:24;;;;;;;12.70;1.65;;;9.60;79.30;;;;;;4993537;28;20057;-90
2021/03/14 13:31:50;;;;;;;11.02;1.60;;;9.60;78.70;;;;;;4993385;28;20054;-89
2021/03/14 13:34:16;;;;;;;10.60;1.58;;;9.60;78.20;;;;;;4993930;28;20057;-91
2021/03/14 13:36:41;;;;;;;10.88;1.70;;;9.50;78.00;;;;;;4993707;28;20061;-90
2021/03/14 13:39:13;;;;;;;10.38;2.00;;;9.50;78.40;;;;;;4993329;28;20075;-90
2021/03/14 13:41:48;;;;;;;15.02;2.00;;;9.50;78.80;;;;;;4993982;28;20050;-91
2021/03/14 13:44:17;;;;;;;11.65;1.70;;;9.40;79.30;;;;;;4993850;28;20121;-90
2021/03/14 13:46:43;;;;;;;7.00;1.65;;;9.50;79.00;;;;;;4994130;28;20405;-92
2021/03/14 13:49:11;;;;;;;14.93;1.70;;;9.50;78.70;;;;;;4994065;28;20050;-92
2021/03/14 13:51:46;;;;;;;11.43;1.80;;;9.50;78.40;;;;;;4993219;28;20050;-91
2021/03/14 13:54:17;;;;;;;11.15;1.98;;;9.50;77.80;;;;;;4994028;28;20121;-89
2021/03/14 13:56:52;;;;;;;10.93;1.60;;;9.50;78.10;;;;;;4993980;28;20061;-90
2021/03/14 13:59:18;;;;;;;13.10;1.70;;;9.60;78.80;;;;;;4992590;28;20137;-90
2021/03/14 14:01:43;;;;;;;11.50;1.30;;;9.60;78.90;;;;;;4993768;28;20137;-89
2021/03/14 14:04:09;;;;;;;10.43;1.80;;;9.60;78.30;;;;;;4993638;28;20038;-89
2021/03/14 14:06:36;;;;;;;11.45;1.63;;;9.60;77.60;;;;;;4993331;28;20056;-91
2021/03/14 14:09:04;;;;;;;16.08;1.95;;;9.60;77.30;;;;;;4994065;28;20047;-88
2021/03/14 14:11:33;;;;;;;14.15;2.60;;;9.60;76.90;;;;;;4993757;28;20069;-89
2021/03/14 14:13:58;;;;;;;14.73;2.08;;;9.60;77.00;;;;;;4993131;28;20050;-90
2021/03/14 14:16:24;;;;;;;11.98;1.95;;;9.50;77.00;;;;;;4993999;28;20046;-87
2021/03/14 14:19:00;;;;;;;16.13;1.95;;;9.60;77.60;;;;;;4994717;28;20057;-88
2021/03/14 14:21:43;;;;;;;11.70;1.58;;;9.60;78.00;;;;;;4995084;28;20061;-89
2021/03/14 14:24:18;;;;;;;12.48;1.90;;;9.60;78.00;;;;;;4994068;28;20557;-89
2021/03/14 14:26:43;;;;;;;12.57;1.55;;;9.60;77.60;;;;;;4992659;28;20050;-89
2021/03/14 14:29:13;;;;;;;12.23;1.80;;;9.60;77.10;;;;;;4992907;28;20046;-88
2021/03/14 14:31:45;;;;;;;17.23;1.90;;;9.70;77.60;;;;;;4993303;28;20050;-89
2021/03/14 14:34:26;;;;;;;10.85;1.73;;;9.70;77.20;;;;;;4992723;28;20089;-89
2021/03/14 14:36:51;;;;;;;11.93;1.70;;;9.70;78.00;;;;;;4993622;28;20050;-88